Ituna, Canada
Current Conditions -  °F | °C
As of 2:00 AM on Tuesday 21 Oct 2014 (Local Time) from CYQV Reporting Station
Clear Clear  
Wind Chill: 41°   Ceiling: Unl
Heat Index: 46°   Visibility: 9mi
Dew Point: 37°   Wind: 13mph
Humidity: 71%   Direction: 160°SSE
Pressure: 29.76"   Gusts: NA
Location:  51.17°N, 103.5°W
Report Text: CYQV 210800Z AUTO 16011KT 9SM CLR 08/03 A2976 RMK SLP087
Loading
Personal Weather Stations






























Interactive Weather Map New forecast layout! Learn more

10-Day Weather Forecast

Advertisements
Track Severe Weather on mobile